sensor_id;sensor_type;location;lat;lon;timestamp;P1;durP1;ratioP1;P2;durP2;ratioP2
62435;SDS011;48480;50.252;18.848;2023-04-03T00:01:33;6.70;;;5.00;;
62435;SDS011;48480;50.252;18.848;2023-04-03T00:04:00;7.30;;;4.80;;
62435;SDS011;48480;50.252;18.848;2023-04-03T00:06:25;6.20;;;4.80;;
62435;SDS011;48480;50.252;18.848;2023-04-03T00:08:52;8.80;;;5.40;;
62435;SDS011;48480;50.252;18.848;2023-04-03T00:11:18;8.20;;;5.20;;
62435;SDS011;48480;50.252;18.848;2023-04-03T00:13:44;8.10;;;5.40;;
62435;SDS011;48480;50.252;18.848;2023-04-03T00:16:09;7.00;;;4.70;;
62435;SDS011;48480;50.252;18.848;2023-04-03T00:18:36;7.30;;;5.30;;
62435;SDS011;48480;50.252;18.848;2023-04-03T00:21:02;7.40;;;4.60;;
62435;SDS011;48480;50.252;18.848;2023-04-03T00:23:28;7.20;;;4.60;;
62435;SDS011;48480;50.252;18.848;2023-04-03T00:25:53;7.50;;;4.90;;
62435;SDS011;48480;50.252;18.848;2023-04-03T00:28:19;9.00;;;5.20;;
62435;SDS011;48480;50.252;18.848;2023-04-03T00:30:46;8.60;;;5.40;;
62435;SDS011;48480;50.252;18.848;2023-04-03T00:33:12;12.20;;;6.10;;
62435;SDS011;48480;50.252;18.848;2023-04-03T00:35:38;9.70;;;5.70;;
62435;SDS011;48480;50.252;18.848;2023-04-03T00:38:04;11.90;;;6.10;;
62435;SDS011;48480;50.252;18.848;2023-04-03T00:40:32;9.40;;;5.10;;
62435;SDS011;48480;50.252;18.848;2023-04-03T00:43:05;12.30;;;6.00;;
62435;SDS011;48480;50.252;18.848;2023-04-03T00:45:38;9.90;;;6.00;;
62435;SDS011;48480;50.252;18.848;2023-04-03T00:48:06;9.10;;;5.90;;
62435;SDS011;48480;50.252;18.848;2023-04-03T00:50:36;10.80;;;6.80;;
62435;SDS011;48480;50.252;18.848;2023-04-03T00:53:04;8.50;;;6.50;;
62435;SDS011;48480;50.252;18.848;2023-04-03T00:55:31;9.00;;;6.20;;
62435;SDS011;48480;50.252;18.848;2023-04-03T00:57:59;9.60;;;6.30;;
62435;SDS011;48480;50.252;18.848;2023-04-03T01:00:26;8.30;;;6.00;;
62435;SDS011;48480;50.252;18.848;2023-04-03T01:02:52;10.70;;;7.10;;
62435;SDS011;48480;50.252;18.848;2023-04-03T01:05:18;10.70;;;6.90;;
62435;SDS011;48480;50.252;18.848;2023-04-03T01:07:45;9.50;;;6.30;;
62435;SDS011;48480;50.252;18.848;2023-04-03T01:10:12;9.30;;;6.30;;
62435;SDS011;48480;50.252;18.848;2023-04-03T01:12:42;8.70;;;6.80;;
62435;SDS011;48480;50.252;18.848;2023-04-03T01:15:12;8.90;;;6.60;;
62435;SDS011;48480;50.252;18.848;2023-04-03T01:17:42;10.10;;;6.50;;
62435;SDS011;48480;50.252;18.848;2023-04-03T01:22:42;11.50;;;7.60;;
62435;SDS011;48480;50.252;18.848;2023-04-03T01:25:15;10.50;;;7.40;;
62435;SDS011;48480;50.252;18.848;2023-04-03T01:27:41;12.50;;;7.80;;
62435;SDS011;48480;50.252;18.848;2023-04-03T01:30:06;13.50;;;9.10;;
62435;SDS011;48480;50.252;18.848;2023-04-03T01:32:33;11.70;;;7.50;;
62435;SDS011;48480;50.252;18.848;2023-04-03T01:34:58;12.40;;;8.10;;
62435;SDS011;48480;50.252;18.848;2023-04-03T01:37:24;9.70;;;7.10;;
62435;SDS011;48480;50.252;18.848;2023-04-03T01:39:49;12.60;;;8.30;;
62435;SDS011;48480;50.252;18.848;2023-04-03T01:42:14;10.70;;;6.80;;
62435;SDS011;48480;50.252;18.848;2023-04-03T01:44:41;10.40;;;6.70;;
62435;SDS011;48480;50.252;18.848;2023-04-03T01:47:07;9.50;;;6.50;;
62435;SDS011;48480;50.252;18.848;2023-04-03T01:49:32;8.50;;;6.30;;
62435;SDS011;48480;50.252;18.848;2023-04-03T01:51:58;12.40;;;7.40;;
62435;SDS011;48480;50.252;18.848;2023-04-03T01:54:23;9.40;;;6.10;;
62435;SDS011;48480;50.252;18.848;2023-04-03T01:56:49;9.40;;;6.00;;
62435;SDS011;48480;50.252;18.848;2023-04-03T01:59:14;8.40;;;5.90;;
62435;SDS011;48480;50.252;18.848;2023-04-03T02:01:42;8.30;;;5.60;;
62435;SDS011;48480;50.252;18.848;2023-04-03T02:04:08;7.90;;;5.60;;
62435;SDS011;48480;50.252;18.848;2023-04-03T02:06:34;9.60;;;6.40;;
62435;SDS011;48480;50.252;18.848;2023-04-03T02:08:59;12.40;;;6.90;;
62435;SDS011;48480;50.252;18.848;2023-04-03T02:11:25;16.80;;;8.40;;
62435;SDS011;48480;50.252;18.848;2023-04-03T02:13:50;11.00;;;7.00;;
62435;SDS011;48480;50.252;18.848;2023-04-03T02:16:16;8.60;;;6.10;;
62435;SDS011;48480;50.252;18.848;2023-04-03T02:18:41;10.20;;;5.90;;
62435;SDS011;48480;50.252;18.848;2023-04-03T02:21:07;8.80;;;5.30;;
62435;SDS011;48480;50.252;18.848;2023-04-03T02:23:32;8.00;;;5.50;;
62435;SDS011;48480;50.252;18.848;2023-04-03T02:26:05;9.70;;;5.80;;
62435;SDS011;48480;50.252;18.848;2023-04-03T02:28:36;10.00;;;5.70;;
62435;SDS011;48480;50.252;18.848;2023-04-03T02:31:02;7.70;;;4.80;;
62435;SDS011;48480;50.252;18.848;2023-04-03T02:33:29;7.40;;;5.00;;
62435;SDS011;48480;50.252;18.848;2023-04-03T02:35:55;9.80;;;5.40;;
62435;SDS011;48480;50.252;18.848;2023-04-03T02:38:21;6.90;;;4.60;;
62435;SDS011;48480;50.252;18.848;2023-04-03T02:40:48;13.30;;;5.40;;
62435;SDS011;48480;50.252;18.848;2023-04-03T02:43:13;6.60;;;4.10;;
62435;SDS011;48480;50.252;18.848;2023-04-03T02:45:39;7.30;;;4.60;;
62435;SDS011;48480;50.252;18.848;2023-04-03T02:48:04;7.90;;;5.00;;
62435;SDS011;48480;50.252;18.848;2023-04-03T02:50:30;7.90;;;4.80;;
62435;SDS011;48480;50.252;18.848;2023-04-03T02:52:55;7.60;;;5.00;;
62435;SDS011;48480;50.252;18.848;2023-04-03T02:55:21;9.50;;;6.00;;
62435;SDS011;48480;50.252;18.848;2023-04-03T02:57:46;9.60;;;5.60;;
62435;SDS011;48480;50.252;18.848;2023-04-03T03:00:12;7.70;;;4.70;;
62435;SDS011;48480;50.252;18.848;2023-04-03T03:02:38;8.10;;;4.90;;
62435;SDS011;48480;50.252;18.848;2023-04-03T03:05:03;7.70;;;4.40;;
62435;SDS011;48480;50.252;18.848;2023-04-03T03:07:29;7.60;;;4.30;;
62435;SDS011;48480;50.252;18.848;2023-04-03T03:09:55;5.70;;;4.00;;
62435;SDS011;48480;50.252;18.848;2023-04-03T03:12:20;6.00;;;4.10;;
62435;SDS011;48480;50.252;18.848;2023-04-03T03:14:47;8.10;;;5.20;;
62435;SDS011;48480;50.252;18.848;2023-04-03T03:17:13;6.70;;;4.20;;
62435;SDS011;48480;50.252;18.848;2023-04-03T03:19:38;8.20;;;5.10;;
62435;SDS011;48480;50.252;18.848;2023-04-03T03:22:04;11.70;;;7.00;;
62435;SDS011;48480;50.252;18.848;2023-04-03T03:24:29;9.00;;;6.20;;
62435;SDS011;48480;50.252;18.848;2023-04-03T03:26:55;9.00;;;5.60;;
62435;SDS011;48480;50.252;18.848;2023-04-03T03:29:20;7.30;;;4.30;;
62435;SDS011;48480;50.252;18.848;2023-04-03T03:31:46;9.10;;;4.30;;
62435;SDS011;48480;50.252;18.848;2023-04-03T03:34:11;9.00;;;4.10;;
62435;SDS011;48480;50.252;18.848;2023-04-03T03:36:38;6.40;;;4.10;;
62435;SDS011;48480;50.252;18.848;2023-04-03T03:39:04;7.20;;;4.20;;
62435;SDS011;48480;50.252;18.848;2023-04-03T03:41:30;9.60;;;4.30;;
62435;SDS011;48480;50.252;18.848;2023-04-03T03:43:56;9.70;;;4.30;;
62435;SDS011;48480;50.252;18.848;2023-04-03T03:46:21;8.40;;;4.00;;
62435;SDS011;48480;50.252;18.848;2023-04-03T03:48:47;6.70;;;4.00;;
62435;SDS011;48480;50.252;18.848;2023-04-03T03:51:12;9.10;;;4.50;;
62435;SDS011;48480;50.252;18.848;2023-04-03T03:53:38;8.70;;;4.40;;
62435;SDS011;48480;50.252;18.848;2023-04-03T03:56:03;8.30;;;4.80;;
62435;SDS011;48480;50.252;18.848;2023-04-03T03:58:29;9.30;;;5.10;;
62435;SDS011;48480;50.252;18.848;2023-04-03T04:00:55;11.50;;;4.00;;
62435;SDS011;48480;50.252;18.848;2023-04-03T04:03:20;7.30;;;4.30;;
62435;SDS011;48480;50.252;18.848;2023-04-03T04:05:46;5.70;;;3.40;;
62435;SDS011;48480;50.252;18.848;2023-04-03T04:08:11;11.00;;;3.40;;
62435;SDS011;48480;50.252;18.848;2023-04-03T04:10:37;8.50;;;3.60;;
62435;SDS011;48480;50.252;18.848;2023-04-03T04:13:03;7.40;;;3.20;;
62435;SDS011;48480;50.252;18.848;2023-04-03T04:15:28;6.20;;;3.40;;
62435;SDS011;48480;50.252;18.848;2023-04-03T04:17:54;5.00;;;3.10;;
62435;SDS011;48480;50.252;18.848;2023-04-03T04:20:20;5.30;;;3.10;;
62435;SDS011;48480;50.252;18.848;2023-04-03T04:22:45;4.40;;;2.70;;
62435;SDS011;48480;50.252;18.848;2023-04-03T04:25:11;5.80;;;3.70;;
62435;SDS011;48480;50.252;18.848;2023-04-03T04:27:37;4.30;;;2.80;;
62435;SDS011;48480;50.252;18.848;2023-04-03T04:30:03;8.30;;;3.40;;
62435;SDS011;48480;50.252;18.848;2023-04-03T04:32:29;5.90;;;3.20;;
62435;SDS011;48480;50.252;18.848;2023-04-03T04:34:55;5.70;;;3.30;;
62435;SDS011;48480;50.252;18.848;2023-04-03T04:37:21;6.20;;;3.00;;
62435;SDS011;48480;50.252;18.848;2023-04-03T04:39:46;7.30;;;3.00;;
62435;SDS011;48480;50.252;18.848;2023-04-03T04:42:11;4.90;;;2.70;;
62435;SDS011;48480;50.252;18.848;2023-04-03T04:44:38;5.80;;;2.90;;
62435;SDS011;48480;50.252;18.848;2023-04-03T04:47:04;7.30;;;3.30;;
62435;SDS011;48480;50.252;18.848;2023-04-03T04:49:30;7.50;;;3.60;;
62435;SDS011;48480;50.252;18.848;2023-04-03T04:51:55;7.10;;;3.10;;
62435;SDS011;48480;50.252;18.848;2023-04-03T04:54:21;6.70;;;2.80;;
62435;SDS011;48480;50.252;18.848;2023-04-03T04:56:46;6.50;;;2.60;;
62435;SDS011;48480;50.252;18.848;2023-04-03T04:59:11;7.20;;;3.10;;
62435;SDS011;48480;50.252;18.848;2023-04-03T05:01:37;4.40;;;2.30;;
62435;SDS011;48480;50.252;18.848;2023-04-03T05:04:05;5.90;;;2.60;;
62435;SDS011;48480;50.252;18.848;2023-04-03T05:06:31;7.70;;;3.30;;
62435;SDS011;48480;50.252;18.848;2023-04-03T05:08:57;5.00;;;2.70;;
62435;SDS011;48480;50.252;18.848;2023-04-03T05:11:22;4.20;;;2.40;;
62435;SDS011;48480;50.252;18.848;2023-04-03T05:13:49;6.10;;;3.20;;
62435;SDS011;48480;50.252;18.848;2023-04-03T05:16:14;5.20;;;3.10;;
62435;SDS011;48480;50.252;18.848;2023-04-03T05:18:40;8.50;;;3.40;;
62435;SDS011;48480;50.252;18.848;2023-04-03T05:21:05;8.00;;;3.30;;
62435;SDS011;48480;50.252;18.848;2023-04-03T05:23:31;8.30;;;3.00;;
62435;SDS011;48480;50.252;18.848;2023-04-03T05:25:57;4.90;;;3.30;;
62435;SDS011;48480;50.252;18.848;2023-04-03T05:28:23;9.00;;;3.20;;
62435;SDS011;48480;50.252;18.848;2023-04-03T05:30:53;8.00;;;3.90;;
62435;SDS011;48480;50.252;18.848;2023-04-03T05:33:20;6.80;;;3.30;;
62435;SDS011;48480;50.252;18.848;2023-04-03T05:35:46;8.00;;;3.60;;
62435;SDS011;48480;50.252;18.848;2023-04-03T05:38:11;7.60;;;3.30;;
62435;SDS011;48480;50.252;18.848;2023-04-03T05:40:37;8.20;;;3.20;;
62435;SDS011;48480;50.252;18.848;2023-04-03T05:43:02;9.40;;;4.50;;
62435;SDS011;48480;50.252;18.848;2023-04-03T05:45:28;7.50;;;4.20;;
62435;SDS011;48480;50.252;18.848;2023-04-03T05:47:54;7.60;;;4.50;;
62435;SDS011;48480;50.252;18.848;2023-04-03T05:50:19;9.10;;;4.40;;
62435;SDS011;48480;50.252;18.848;2023-04-03T05:52:45;8.70;;;4.20;;
62435;SDS011;48480;50.252;18.848;2023-04-03T05:55:13;9.60;;;3.90;;
62435;SDS011;48480;50.252;18.848;2023-04-03T05:57:39;11.00;;;4.30;;
62435;SDS011;48480;50.252;18.848;2023-04-03T06:00:05;8.50;;;4.10;;
62435;SDS011;48480;50.252;18.848;2023-04-03T06:02:32;8.10;;;4.60;;
62435;SDS011;48480;50.252;18.848;2023-04-03T06:04:57;8.70;;;4.20;;
62435;SDS011;48480;50.252;18.848;2023-04-03T06:07:23;8.80;;;4.30;;
62435;SDS011;48480;50.252;18.848;2023-04-03T06:09:53;7.60;;;4.10;;
62435;SDS011;48480;50.252;18.848;2023-04-03T06:12:20;8.30;;;4.30;;
62435;SDS011;48480;50.252;18.848;2023-04-03T06:14:47;10.90;;;4.70;;
62435;SDS011;48480;50.252;18.848;2023-04-03T06:17:13;10.80;;;5.70;;
62435;SDS011;48480;50.252;18.848;2023-04-03T06:19:39;10.90;;;6.60;;
62435;SDS011;48480;50.252;18.848;2023-04-03T06:22:04;13.30;;;6.80;;
62435;SDS011;48480;50.252;18.848;2023-04-03T06:24:29;11.30;;;6.10;;
62435;SDS011;48480;50.252;18.848;2023-04-03T06:26:56;13.20;;;6.30;;
62435;SDS011;48480;50.252;18.848;2023-04-03T06:29:22;11.80;;;6.20;;
62435;SDS011;48480;50.252;18.848;2023-04-03T06:31:48;11.10;;;5.70;;
62435;SDS011;48480;50.252;18.848;2023-04-03T06:34:15;12.20;;;5.20;;
62435;SDS011;48480;50.252;18.848;2023-04-03T06:36:40;10.90;;;5.90;;
62435;SDS011;48480;50.252;18.848;2023-04-03T06:39:06;17.10;;;5.50;;
62435;SDS011;48480;50.252;18.848;2023-04-03T06:41:34;9.00;;;4.80;;
62435;SDS011;48480;50.252;18.848;2023-04-03T06:43:59;11.20;;;5.00;;
62435;SDS011;48480;50.252;18.848;2023-04-03T06:46:25;11.00;;;4.60;;
62435;SDS011;48480;50.252;18.848;2023-04-03T06:48:51;14.50;;;6.30;;
62435;SDS011;48480;50.252;18.848;2023-04-03T06:53:53;10.80;;;5.20;;
62435;SDS011;48480;50.252;18.848;2023-04-03T06:56:20;6.90;;;3.80;;
62435;SDS011;48480;50.252;18.848;2023-04-03T06:58:46;12.20;;;5.20;;
62435;SDS011;48480;50.252;18.848;2023-04-03T07:01:13;15.00;;;5.30;;
62435;SDS011;48480;50.252;18.848;2023-04-03T07:03:40;10.30;;;4.90;;
62435;SDS011;48480;50.252;18.848;2023-04-03T07:06:06;10.00;;;4.30;;
62435;SDS011;48480;50.252;18.848;2023-04-03T07:08:33;9.00;;;3.90;;
62435;SDS011;48480;50.252;18.848;2023-04-03T07:11:00;8.00;;;4.40;;
62435;SDS011;48480;50.252;18.848;2023-04-03T07:13:26;14.30;;;4.60;;
62435;SDS011;48480;50.252;18.848;2023-04-03T07:15:51;6.90;;;4.60;;
62435;SDS011;48480;50.252;18.848;2023-04-03T07:18:17;9.30;;;5.00;;
62435;SDS011;48480;50.252;18.848;2023-04-03T07:20:44;11.20;;;4.80;;
62435;SDS011;48480;50.252;18.848;2023-04-03T07:23:10;9.00;;;6.00;;
62435;SDS011;48480;50.252;18.848;2023-04-03T07:25:36;8.50;;;4.60;;
62435;SDS011;48480;50.252;18.848;2023-04-03T07:28:02;9.50;;;5.20;;
62435;SDS011;48480;50.252;18.848;2023-04-03T07:30:28;8.60;;;4.60;;
62435;SDS011;48480;50.252;18.848;2023-04-03T07:32:54;11.10;;;4.20;;
62435;SDS011;48480;50.252;18.848;2023-04-03T07:35:20;8.90;;;4.30;;
62435;SDS011;48480;50.252;18.848;2023-04-03T07:37:46;7.90;;;4.10;;
62435;SDS011;48480;50.252;18.848;2023-04-03T07:40:12;9.00;;;4.10;;
62435;SDS011;48480;50.252;18.848;2023-04-03T07:42:37;6.70;;;3.90;;
62435;SDS011;48480;50.252;18.848;2023-04-03T07:45:03;6.40;;;3.60;;
62435;SDS011;48480;50.252;18.848;2023-04-03T07:47:29;10.20;;;4.60;;
62435;SDS011;48480;50.252;18.848;2023-04-03T07:49:56;6.80;;;3.60;;
62435;SDS011;48480;50.252;18.848;2023-04-03T07:52:22;9.40;;;4.60;;
62435;SDS011;48480;50.252;18.848;2023-04-03T07:54:48;9.20;;;4.50;;
62435;SDS011;48480;50.252;18.848;2023-04-03T07:57:14;11.20;;;5.30;;
62435;SDS011;48480;50.252;18.848;2023-04-03T07:59:39;9.70;;;5.20;;
62435;SDS011;48480;50.252;18.848;2023-04-03T08:02:08;12.20;;;7.20;;
62435;SDS011;48480;50.252;18.848;2023-04-03T08:04:38;11.40;;;6.40;;
62435;SDS011;48480;50.252;18.848;2023-04-03T08:07:04;11.90;;;4.00;;
62435;SDS011;48480;50.252;18.848;2023-04-03T08:09:30;10.40;;;6.00;;
62435;SDS011;48480;50.252;18.848;2023-04-03T08:11:57;6.80;;;4.00;;
62435;SDS011;48480;50.252;18.848;2023-04-03T08:14:23;7.70;;;4.10;;
62435;SDS011;48480;50.252;18.848;2023-04-03T08:16:49;7.00;;;4.00;;
62435;SDS011;48480;50.252;18.848;2023-04-03T08:19:15;9.00;;;4.90;;
62435;SDS011;48480;50.252;18.848;2023-04-03T08:21:43;8.40;;;4.70;;
62435;SDS011;48480;50.252;18.848;2023-04-03T08:24:09;7.70;;;4.70;;
62435;SDS011;48480;50.252;18.848;2023-04-03T08:26:35;6.30;;;4.30;;
62435;SDS011;48480;50.252;18.848;2023-04-03T08:29:01;6.80;;;3.90;;
62435;SDS011;48480;50.252;18.848;2023-04-03T08:31:27;7.60;;;4.30;;
62435;SDS011;48480;50.252;18.848;2023-04-03T08:33:53;5.70;;;3.00;;
62435;SDS011;48480;50.252;18.848;2023-04-03T08:36:20;5.30;;;3.20;;
62435;SDS011;48480;50.252;18.848;2023-04-03T08:38:47;8.70;;;4.00;;
62435;SDS011;48480;50.252;18.848;2023-04-03T08:46:39;7.70;;;3.20;;
62435;SDS011;48480;50.252;18.848;2023-04-03T08:49:16;8.60;;;4.50;;
62435;SDS011;48480;50.252;18.848;2023-04-03T08:51:54;6.30;;;4.10;;
62435;SDS011;48480;50.252;18.848;2023-04-03T08:54:25;8.10;;;4.10;;
62435;SDS011;48480;50.252;18.848;2023-04-03T08:56:58;4.90;;;3.10;;
62435;SDS011;48480;50.252;18.848;2023-04-03T08:59:31;5.80;;;2.80;;
62435;SDS011;48480;50.252;18.848;2023-04-03T09:02:00;6.30;;;3.20;;
62435;SDS011;48480;50.252;18.848;2023-04-03T09:04:31;4.20;;;3.00;;
62435;SDS011;48480;50.252;18.848;2023-04-03T09:07:00;7.50;;;3.60;;
62435;SDS011;48480;50.252;18.848;2023-04-03T09:09:37;6.70;;;2.90;;
62435;SDS011;48480;50.252;18.848;2023-04-03T09:20:54;4.60;;;2.80;;
62435;SDS011;48480;50.252;18.848;2023-04-03T09:23:30;3.90;;;2.40;;
62435;SDS011;48480;50.252;18.848;2023-04-03T09:26:02;6.70;;;3.70;;
62435;SDS011;48480;50.252;18.848;2023-04-03T09:28:35;7.80;;;3.40;;
62435;SDS011;48480;50.252;18.848;2023-04-03T09:31:18;8.00;;;3.60;;
62435;SDS011;48480;50.252;18.848;2023-04-03T09:33:49;7.40;;;3.60;;
62435;SDS011;48480;50.252;18.848;2023-04-03T09:39:16;4.60;;;2.50;;
62435;SDS011;48480;50.252;18.848;2023-04-03T09:44:58;5.20;;;2.50;;
62435;SDS011;48480;50.252;18.848;2023-04-03T09:47:32;5.00;;;2.60;;
62435;SDS011;48480;50.252;18.848;2023-04-03T09:52:40;4.60;;;2.90;;
62435;SDS011;48480;50.252;18.848;2023-04-03T09:57:43;7.50;;;3.30;;
62435;SDS011;48480;50.252;18.848;2023-04-03T10:00:19;4.10;;;2.60;;
62435;SDS011;48480;50.252;18.848;2023-04-03T10:03:08;5.60;;;2.60;;
62435;SDS011;48480;50.252;18.848;2023-04-03T10:05:49;6.30;;;3.00;;
62435;SDS011;48480;50.252;18.848;2023-04-03T10:08:25;6.10;;;2.90;;
62435;SDS011;48480;50.252;18.848;2023-04-03T10:11:06;4.30;;;2.50;;
62435;SDS011;48480;50.252;18.848;2023-04-03T10:13:36;5.90;;;2.90;;
62435;SDS011;48480;50.252;18.848;2023-04-03T10:16:15;5.30;;;2.40;;
62435;SDS011;48480;50.252;18.848;2023-04-03T10:18:49;6.10;;;2.50;;
62435;SDS011;48480;50.252;18.848;2023-04-03T10:29:25;4.70;;;3.20;;
62435;SDS011;48480;50.252;18.848;2023-04-03T10:32:06;4.50;;;3.00;;
62435;SDS011;48480;50.252;18.848;2023-04-03T10:34:45;4.80;;;3.20;;
62435;SDS011;48480;50.252;18.848;2023-04-03T10:45:20;5.80;;;3.20;;
62435;SDS011;48480;50.252;18.848;2023-04-03T10:53:34;6.30;;;2.90;;
62435;SDS011;48480;50.252;18.848;2023-04-03T10:58:56;7.20;;;3.60;;
62435;SDS011;48480;50.252;18.848;2023-04-03T11:01:25;8.50;;;4.90;;
62435;SDS011;48480;50.252;18.848;2023-04-03T11:03:57;8.50;;;4.50;;
62435;SDS011;48480;50.252;18.848;2023-04-03T11:06:25;9.40;;;3.70;;
62435;SDS011;48480;50.252;18.848;2023-04-03T11:09:18;4.90;;;3.60;;
62435;SDS011;48480;50.252;18.848;2023-04-03T11:12:17;4.80;;;2.50;;
62435;SDS011;48480;50.252;18.848;2023-04-03T11:14:48;5.80;;;2.90;;
62435;SDS011;48480;50.252;18.848;2023-04-03T11:22:23;5.70;;;2.40;;
62435;SDS011;48480;50.252;18.848;2023-04-03T11:27:58;4.40;;;2.70;;
62435;SDS011;48480;50.252;18.848;2023-04-03T11:36:00;6.30;;;2.80;;
62435;SDS011;48480;50.252;18.848;2023-04-03T11:38:33;7.50;;;3.40;;
62435;SDS011;48480;50.252;18.848;2023-04-03T11:41:04;3.90;;;1.90;;
62435;SDS011;48480;50.252;18.848;2023-04-03T11:43:32;4.80;;;2.60;;
62435;SDS011;48480;50.252;18.848;2023-04-03T11:46:08;5.80;;;2.80;;
62435;SDS011;48480;50.252;18.848;2023-04-03T11:50:59;5.30;;;2.90;;
62435;SDS011;48480;50.252;18.848;2023-04-03T11:53:37;7.60;;;3.70;;
62435;SDS011;48480;50.252;18.848;2023-04-03T11:56:26;9.10;;;3.90;;
62435;SDS011;48480;50.252;18.848;2023-04-03T12:04:22;5.70;;;2.80;;
62435;SDS011;48480;50.252;18.848;2023-04-03T12:06:51;4.30;;;1.90;;
62435;SDS011;48480;50.252;18.848;2023-04-03T12:12:01;5.80;;;2.80;;
62435;SDS011;48480;50.252;18.848;2023-04-03T12:14:47;6.10;;;3.40;;
62435;SDS011;48480;50.252;18.848;2023-04-03T12:17:19;8.90;;;3.70;;
62435;SDS011;48480;50.252;18.848;2023-04-03T12:19:49;5.60;;;3.00;;
62435;SDS011;48480;50.252;18.848;2023-04-03T12:22:16;5.60;;;3.00;;
62435;SDS011;48480;50.252;18.848;2023-04-03T12:24:46;5.90;;;3.10;;
62435;SDS011;48480;50.252;18.848;2023-04-03T12:32:26;7.00;;;4.00;;
62435;SDS011;48480;50.252;18.848;2023-04-03T12:46:14;5.20;;;2.20;;
62435;SDS011;48480;50.252;18.848;2023-04-03T12:48:56;4.30;;;2.30;;
62435;SDS011;48480;50.252;18.848;2023-04-03T12:51:27;3.00;;;1.80;;
62435;SDS011;48480;50.252;18.848;2023-04-03T12:54:04;3.90;;;2.20;;
62435;SDS011;48480;50.252;18.848;2023-04-03T12:56:43;5.90;;;2.30;;
62435;SDS011;48480;50.252;18.848;2023-04-03T12:59:13;5.10;;;2.60;;
62435;SDS011;48480;50.252;18.848;2023-04-03T13:01:39;3.90;;;2.20;;
62435;SDS011;48480;50.252;18.848;2023-04-03T13:04:05;6.60;;;3.20;;
62435;SDS011;48480;50.252;18.848;2023-04-03T13:06:32;7.00;;;3.50;;
62435;SDS011;48480;50.252;18.848;2023-04-03T13:09:04;5.90;;;3.10;;
62435;SDS011;48480;50.252;18.848;2023-04-03T13:11:35;7.10;;;3.80;;
62435;SDS011;48480;50.252;18.848;2023-04-03T13:14:25;5.90;;;3.20;;
62435;SDS011;48480;50.252;18.848;2023-04-03T13:16:57;5.10;;;3.20;;
62435;SDS011;48480;50.252;18.848;2023-04-03T13:19:44;6.20;;;3.70;;
62435;SDS011;48480;50.252;18.848;2023-04-03T13:24:43;5.30;;;2.60;;
62435;SDS011;48480;50.252;18.848;2023-04-03T13:27:12;5.30;;;3.20;;
62435;SDS011;48480;50.252;18.848;2023-04-03T13:29:38;5.30;;;2.80;;
62435;SDS011;48480;50.252;18.848;2023-04-03T13:32:04;4.70;;;2.50;;
62435;SDS011;48480;50.252;18.848;2023-04-03T13:34:36;6.80;;;3.10;;
62435;SDS011;48480;50.252;18.848;2023-04-03T13:37:22;7.90;;;4.10;;
62435;SDS011;48480;50.252;18.848;2023-04-03T13:42:34;10.90;;;6.00;;
62435;SDS011;48480;50.252;18.848;2023-04-03T13:45:20;7.90;;;4.80;;
62435;SDS011;48480;50.252;18.848;2023-04-03T13:47:49;7.60;;;4.90;;
62435;SDS011;48480;50.252;18.848;2023-04-03T13:50:23;10.10;;;6.00;;
62435;SDS011;48480;50.252;18.848;2023-04-03T13:52:54;8.30;;;5.80;;
62435;SDS011;48480;50.252;18.848;2023-04-03T13:55:28;6.70;;;4.50;;
62435;SDS011;48480;50.252;18.848;2023-04-03T14:06:06;8.40;;;4.80;;
62435;SDS011;48480;50.252;18.848;2023-04-03T14:08:35;7.60;;;3.90;;
62435;SDS011;48480;50.252;18.848;2023-04-03T14:11:00;6.90;;;4.00;;
62435;SDS011;48480;50.252;18.848;2023-04-03T14:13:26;8.90;;;4.20;;
62435;SDS011;48480;50.252;18.848;2023-04-03T14:15:51;5.20;;;3.50;;
62435;SDS011;48480;50.252;18.848;2023-04-03T14:18:18;6.30;;;4.60;;
62435;SDS011;48480;50.252;18.848;2023-04-03T14:20:45;7.00;;;4.20;;
62435;SDS011;48480;50.252;18.848;2023-04-03T14:23:10;8.30;;;4.30;;
62435;SDS011;48480;50.252;18.848;2023-04-03T14:25:36;5.90;;;3.10;;
62435;SDS011;48480;50.252;18.848;2023-04-03T14:28:23;11.30;;;5.20;;
62435;SDS011;48480;50.252;18.848;2023-04-03T14:30:49;8.40;;;5.50;;
62435;SDS011;48480;50.252;18.848;2023-04-03T14:33:16;7.60;;;4.30;;
62435;SDS011;48480;50.252;18.848;2023-04-03T14:35:44;6.60;;;4.40;;
62435;SDS011;48480;50.252;18.848;2023-04-03T14:38:24;8.80;;;5.00;;
62435;SDS011;48480;50.252;18.848;2023-04-03T14:43:17;8.40;;;5.30;;
62435;SDS011;48480;50.252;18.848;2023-04-03T14:45:43;8.60;;;4.40;;
62435;SDS011;48480;50.252;18.848;2023-04-03T14:48:11;9.40;;;4.90;;
62435;SDS011;48480;50.252;18.848;2023-04-03T14:50:43;8.80;;;4.80;;
62435;SDS011;48480;50.252;18.848;2023-04-03T14:53:09;9.90;;;5.20;;
62435;SDS011;48480;50.252;18.848;2023-04-03T14:58:05;8.60;;;4.50;;
62435;SDS011;48480;50.252;18.848;2023-04-03T15:00:33;8.30;;;4.10;;
62435;SDS011;48480;50.252;18.848;2023-04-03T15:02:58;8.60;;;4.50;;
62435;SDS011;48480;50.252;18.848;2023-04-03T15:05:24;12.00;;;5.60;;
62435;SDS011;48480;50.252;18.848;2023-04-03T15:07:52;7.50;;;4.10;;
62435;SDS011;48480;50.252;18.848;2023-04-03T15:10:26;12.60;;;4.50;;
62435;SDS011;48480;50.252;18.848;2023-04-03T15:12:54;6.80;;;4.10;;
62435;SDS011;48480;50.252;18.848;2023-04-03T15:15:21;5.80;;;3.60;;
62435;SDS011;48480;50.252;18.848;2023-04-03T15:17:52;7.60;;;3.50;;
62435;SDS011;48480;50.252;18.848;2023-04-03T15:20:20;6.20;;;3.30;;
62435;SDS011;48480;50.252;18.848;2023-04-03T15:22:47;10.70;;;4.60;;
62435;SDS011;48480;50.252;18.848;2023-04-03T15:25:13;15.10;;;6.40;;
62435;SDS011;48480;50.252;18.848;2023-04-03T15:27:40;12.80;;;6.50;;
62435;SDS011;48480;50.252;18.848;2023-04-03T15:30:05;10.60;;;6.20;;
62435;SDS011;48480;50.252;18.848;2023-04-03T15:32:33;8.50;;;4.70;;
62435;SDS011;48480;50.252;18.848;2023-04-03T15:34:59;9.00;;;4.50;;
62435;SDS011;48480;50.252;18.848;2023-04-03T15:37:25;8.90;;;5.00;;
62435;SDS011;48480;50.252;18.848;2023-04-03T15:39:51;9.30;;;4.50;;
62435;SDS011;48480;50.252;18.848;2023-04-03T15:42:16;5.80;;;3.70;;
62435;SDS011;48480;50.252;18.848;2023-04-03T15:44:41;10.90;;;6.00;;
62435;SDS011;48480;50.252;18.848;2023-04-03T15:47:07;6.60;;;3.70;;
62435;SDS011;48480;50.252;18.848;2023-04-03T15:49:33;9.40;;;4.30;;
62435;SDS011;48480;50.252;18.848;2023-04-03T15:51:59;10.00;;;4.80;;
62435;SDS011;48480;50.252;18.848;2023-04-03T15:54:25;10.40;;;5.40;;
62435;SDS011;48480;50.252;18.848;2023-04-03T15:56:51;10.10;;;5.50;;
62435;SDS011;48480;50.252;18.848;2023-04-03T15:59:18;10.50;;;5.70;;
62435;SDS011;48480;50.252;18.848;2023-04-03T16:01:44;9.20;;;5.60;;
62435;SDS011;48480;50.252;18.848;2023-04-03T16:04:10;6.80;;;4.10;;
62435;SDS011;48480;50.252;18.848;2023-04-03T16:06:36;10.20;;;5.20;;
62435;SDS011;48480;50.252;18.848;2023-04-03T16:09:02;8.70;;;4.00;;
62435;SDS011;48480;50.252;18.848;2023-04-03T16:11:29;7.40;;;3.90;;
62435;SDS011;48480;50.252;18.848;2023-04-03T16:13:55;7.00;;;3.70;;
62435;SDS011;48480;50.252;18.848;2023-04-03T16:16:20;10.40;;;4.30;;
62435;SDS011;48480;50.252;18.848;2023-04-03T16:18:46;13.10;;;5.20;;
62435;SDS011;48480;50.252;18.848;2023-04-03T16:21:13;8.60;;;4.30;;
62435;SDS011;48480;50.252;18.848;2023-04-03T16:23:41;8.60;;;3.80;;
62435;SDS011;48480;50.252;18.848;2023-04-03T16:26:06;13.90;;;7.00;;
62435;SDS011;48480;50.252;18.848;2023-04-03T16:28:32;12.10;;;6.60;;
62435;SDS011;48480;50.252;18.848;2023-04-03T16:30:57;16.20;;;7.80;;